sensor_id;sensor_type;location;lat;lon;timestamp;P1;durP1;ratioP1;P2;durP2;ratioP2
11230;SDS011;5672;51.060;3.734;2023-07-20T00:01:44;6.37;;;4.40;;
11230;SDS011;5672;51.060;3.734;2023-07-20T00:04:10;12.93;;;4.53;;
11230;SDS011;5672;51.060;3.734;2023-07-20T00:06:36;7.93;;;4.37;;
11230;SDS011;5672;51.060;3.734;2023-07-20T00:09:05;7.73;;;4.50;;
11230;SDS011;5672;51.060;3.734;2023-07-20T00:11:31;7.30;;;4.73;;
11230;SDS011;5672;51.060;3.734;2023-07-20T00:13:57;6.87;;;4.60;;
11230;SDS011;5672;51.060;3.734;2023-07-20T00:16:24;5.37;;;4.80;;
11230;SDS011;5672;51.060;3.734;2023-07-20T00:18:50;6.43;;;4.60;;
11230;SDS011;5672;51.060;3.734;2023-07-20T00:21:16;8.03;;;4.87;;
11230;SDS011;5672;51.060;3.734;2023-07-20T00:23:41;5.10;;;4.47;;
11230;SDS011;5672;51.060;3.734;2023-07-20T00:26:07;11.90;;;4.57;;
11230;SDS011;5672;51.060;3.734;2023-07-20T00:28:33;8.40;;;5.13;;
11230;SDS011;5672;51.060;3.734;2023-07-20T00:30:59;7.70;;;4.50;;
11230;SDS011;5672;51.060;3.734;2023-07-20T00:33:25;6.00;;;5.00;;
11230;SDS011;5672;51.060;3.734;2023-07-20T00:35:51;10.23;;;5.20;;
11230;SDS011;5672;51.060;3.734;2023-07-20T00:38:17;7.43;;;4.80;;
11230;SDS011;5672;51.060;3.734;2023-07-20T00:40:43;8.23;;;4.80;;
11230;SDS011;5672;51.060;3.734;2023-07-20T00:43:09;11.07;;;5.17;;
11230;SDS011;5672;51.060;3.734;2023-07-20T00:45:35;5.47;;;4.77;;
11230;SDS011;5672;51.060;3.734;2023-07-20T00:48:02;9.63;;;5.30;;
11230;SDS011;5672;51.060;3.734;2023-07-20T00:50:29;10.50;;;5.37;;
11230;SDS011;5672;51.060;3.734;2023-07-20T00:52:55;7.80;;;5.30;;
11230;SDS011;5672;51.060;3.734;2023-07-20T00:55:22;7.67;;;4.80;;
11230;SDS011;5672;51.060;3.734;2023-07-20T00:57:49;8.37;;;4.93;;
11230;SDS011;5672;51.060;3.734;2023-07-20T01:00:15;10.60;;;5.17;;
11230;SDS011;5672;51.060;3.734;2023-07-20T01:02:41;7.63;;;4.70;;
11230;SDS011;5672;51.060;3.734;2023-07-20T01:05:07;7.50;;;5.00;;
11230;SDS011;5672;51.060;3.734;2023-07-20T01:07:37;13.87;;;4.73;;
11230;SDS011;5672;51.060;3.734;2023-07-20T01:10:14;8.10;;;5.20;;
11230;SDS011;5672;51.060;3.734;2023-07-20T01:12:43;8.73;;;5.30;;
11230;SDS011;5672;51.060;3.734;2023-07-20T01:15:09;8.57;;;5.17;;
11230;SDS011;5672;51.060;3.734;2023-07-20T01:17:35;6.90;;;5.07;;
11230;SDS011;5672;51.060;3.734;2023-07-20T01:20:02;7.90;;;5.23;;
11230;SDS011;5672;51.060;3.734;2023-07-20T01:30:04;8.33;;;5.43;;
11230;SDS011;5672;51.060;3.734;2023-07-20T01:32:34;7.50;;;5.30;;
11230;SDS011;5672;51.060;3.734;2023-07-20T01:35:00;6.40;;;4.67;;
11230;SDS011;5672;51.060;3.734;2023-07-20T01:37:27;9.37;;;5.27;;
11230;SDS011;5672;51.060;3.734;2023-07-20T01:39:54;6.67;;;5.20;;
11230;SDS011;5672;51.060;3.734;2023-07-20T01:42:21;7.83;;;5.53;;
11230;SDS011;5672;51.060;3.734;2023-07-20T01:44:50;7.53;;;5.13;;
11230;SDS011;5672;51.060;3.734;2023-07-20T01:47:16;5.93;;;5.17;;
11230;SDS011;5672;51.060;3.734;2023-07-20T01:49:42;7.73;;;5.10;;
11230;SDS011;5672;51.060;3.734;2023-07-20T01:52:08;6.20;;;5.20;;
11230;SDS011;5672;51.060;3.734;2023-07-20T01:54:34;6.63;;;4.83;;
11230;SDS011;5672;51.060;3.734;2023-07-20T01:57:00;7.40;;;4.83;;
11230;SDS011;5672;51.060;3.734;2023-07-20T01:59:26;4.73;;;4.30;;
11230;SDS011;5672;51.060;3.734;2023-07-20T02:01:52;6.43;;;5.17;;
11230;SDS011;5672;51.060;3.734;2023-07-20T02:04:18;6.77;;;4.60;;
11230;SDS011;5672;51.060;3.734;2023-07-20T02:06:44;7.20;;;5.00;;
11230;SDS011;5672;51.060;3.734;2023-07-20T02:09:10;6.30;;;5.13;;
11230;SDS011;5672;51.060;3.734;2023-07-20T02:11:36;5.50;;;5.00;;
11230;SDS011;5672;51.060;3.734;2023-07-20T02:14:02;7.60;;;4.90;;
11230;SDS011;5672;51.060;3.734;2023-07-20T02:16:28;8.90;;;5.13;;
11230;SDS011;5672;51.060;3.734;2023-07-20T02:18:54;6.70;;;4.63;;
11230;SDS011;5672;51.060;3.734;2023-07-20T02:21:21;4.93;;;4.53;;
11230;SDS011;5672;51.060;3.734;2023-07-20T02:23:48;7.30;;;5.27;;
11230;SDS011;5672;51.060;3.734;2023-07-20T02:26:14;5.37;;;4.57;;
11230;SDS011;5672;51.060;3.734;2023-07-20T02:28:40;6.10;;;5.23;;
11230;SDS011;5672;51.060;3.734;2023-07-20T02:31:06;6.33;;;4.87;;
11230;SDS011;5672;51.060;3.734;2023-07-20T02:33:32;7.47;;;5.00;;
11230;SDS011;5672;51.060;3.734;2023-07-20T02:35:58;10.73;;;6.43;;
11230;SDS011;5672;51.060;3.734;2023-07-20T02:38:24;8.40;;;5.80;;
11230;SDS011;5672;51.060;3.734;2023-07-20T02:40:50;8.67;;;5.97;;
11230;SDS011;5672;51.060;3.734;2023-07-20T02:43:16;10.10;;;5.77;;
11230;SDS011;5672;51.060;3.734;2023-07-20T02:45:42;7.97;;;5.93;;
11230;SDS011;5672;51.060;3.734;2023-07-20T02:48:09;9.23;;;5.60;;
11230;SDS011;5672;51.060;3.734;2023-07-20T02:50:35;7.40;;;5.80;;
11230;SDS011;5672;51.060;3.734;2023-07-20T02:53:01;9.10;;;5.67;;
11230;SDS011;5672;51.060;3.734;2023-07-20T02:55:27;7.27;;;6.00;;
11230;SDS011;5672;51.060;3.734;2023-07-20T02:57:53;8.63;;;5.80;;
11230;SDS011;5672;51.060;3.734;2023-07-20T03:00:19;10.40;;;5.20;;
11230;SDS011;5672;51.060;3.734;2023-07-20T03:02:46;8.13;;;5.43;;
11230;SDS011;5672;51.060;3.734;2023-07-20T03:05:20;7.47;;;5.40;;
11230;SDS011;5672;51.060;3.734;2023-07-20T03:07:46;7.07;;;5.40;;
11230;SDS011;5672;51.060;3.734;2023-07-20T03:10:12;7.97;;;6.00;;
11230;SDS011;5672;51.060;3.734;2023-07-20T03:12:38;9.40;;;6.00;;
11230;SDS011;5672;51.060;3.734;2023-07-20T03:15:04;7.00;;;5.87;;
11230;SDS011;5672;51.060;3.734;2023-07-20T03:17:31;13.47;;;6.73;;
11230;SDS011;5672;51.060;3.734;2023-07-20T03:19:57;7.37;;;6.27;;
11230;SDS011;5672;51.060;3.734;2023-07-20T03:22:24;10.77;;;6.43;;
11230;SDS011;5672;51.060;3.734;2023-07-20T03:24:51;9.83;;;6.30;;
11230;SDS011;5672;51.060;3.734;2023-07-20T03:27:17;8.07;;;5.33;;
11230;SDS011;5672;51.060;3.734;2023-07-20T03:29:43;8.43;;;5.90;;
11230;SDS011;5672;51.060;3.734;2023-07-20T03:32:09;8.33;;;6.40;;
11230;SDS011;5672;51.060;3.734;2023-07-20T03:34:35;7.83;;;6.10;;
11230;SDS011;5672;51.060;3.734;2023-07-20T03:37:01;9.40;;;6.73;;
11230;SDS011;5672;51.060;3.734;2023-07-20T03:39:29;8.97;;;6.10;;
11230;SDS011;5672;51.060;3.734;2023-07-20T03:41:55;6.07;;;5.57;;
11230;SDS011;5672;51.060;3.734;2023-07-20T03:44:23;8.60;;;6.17;;
11230;SDS011;5672;51.060;3.734;2023-07-20T03:46:49;8.47;;;5.73;;
11230;SDS011;5672;51.060;3.734;2023-07-20T03:49:15;8.13;;;6.57;;
11230;SDS011;5672;51.060;3.734;2023-07-20T03:51:41;6.97;;;5.83;;
11230;SDS011;5672;51.060;3.734;2023-07-20T03:54:06;7.90;;;5.83;;
11230;SDS011;5672;51.060;3.734;2023-07-20T03:56:32;8.63;;;6.17;;
11230;SDS011;5672;51.060;3.734;2023-07-20T03:59:00;10.17;;;6.10;;
11230;SDS011;5672;51.060;3.734;2023-07-20T04:01:26;6.80;;;5.83;;
11230;SDS011;5672;51.060;3.734;2023-07-20T04:03:52;8.17;;;6.23;;
11230;SDS011;5672;51.060;3.734;2023-07-20T04:06:18;7.47;;;5.20;;
11230;SDS011;5672;51.060;3.734;2023-07-20T04:08:44;6.30;;;5.67;;
11230;SDS011;5672;51.060;3.734;2023-07-20T04:11:12;6.30;;;5.50;;
11230;SDS011;5672;51.060;3.734;2023-07-20T04:13:38;12.53;;;6.43;;
11230;SDS011;5672;51.060;3.734;2023-07-20T04:16:04;10.13;;;6.70;;
11230;SDS011;5672;51.060;3.734;2023-07-20T04:18:30;6.50;;;5.80;;
11230;SDS011;5672;51.060;3.734;2023-07-20T04:20:56;7.70;;;6.10;;
11230;SDS011;5672;51.060;3.734;2023-07-20T04:23:22;6.97;;;5.93;;
11230;SDS011;5672;51.060;3.734;2023-07-20T04:25:48;8.60;;;5.73;;
11230;SDS011;5672;51.060;3.734;2023-07-20T04:28:14;6.37;;;5.73;;
11230;SDS011;5672;51.060;3.734;2023-07-20T04:30:40;9.07;;;6.13;;
11230;SDS011;5672;51.060;3.734;2023-07-20T04:33:06;8.00;;;6.37;;
11230;SDS011;5672;51.060;3.734;2023-07-20T04:38:10;9.20;;;6.20;;
11230;SDS011;5672;51.060;3.734;2023-07-20T04:40:36;9.80;;;6.13;;
11230;SDS011;5672;51.060;3.734;2023-07-20T04:43:02;7.37;;;5.80;;
11230;SDS011;5672;51.060;3.734;2023-07-20T04:45:28;9.60;;;6.03;;
11230;SDS011;5672;51.060;3.734;2023-07-20T04:47:54;7.27;;;5.67;;
11230;SDS011;5672;51.060;3.734;2023-07-20T04:50:20;5.83;;;5.33;;
11230;SDS011;5672;51.060;3.734;2023-07-20T04:52:46;6.40;;;5.90;;
11230;SDS011;5672;51.060;3.734;2023-07-20T04:55:13;6.17;;;5.67;;
11230;SDS011;5672;51.060;3.734;2023-07-20T04:57:39;5.87;;;5.33;;
11230;SDS011;5672;51.060;3.734;2023-07-20T05:00:05;6.93;;;5.97;;
11230;SDS011;5672;51.060;3.734;2023-07-20T05:02:31;6.63;;;5.97;;
11230;SDS011;5672;51.060;3.734;2023-07-20T05:04:57;6.57;;;5.97;;
11230;SDS011;5672;51.060;3.734;2023-07-20T05:07:23;6.73;;;6.10;;
11230;SDS011;5672;51.060;3.734;2023-07-20T05:09:49;7.00;;;6.07;;
11230;SDS011;5672;51.060;3.734;2023-07-20T05:12:15;6.47;;;5.10;;
11230;SDS011;5672;51.060;3.734;2023-07-20T05:14:41;6.60;;;5.40;;
11230;SDS011;5672;51.060;3.734;2023-07-20T05:17:07;5.40;;;4.90;;
11230;SDS011;5672;51.060;3.734;2023-07-20T05:19:33;5.07;;;4.67;;
11230;SDS011;5672;51.060;3.734;2023-07-20T05:21:59;5.77;;;5.10;;
11230;SDS011;5672;51.060;3.734;2023-07-20T05:24:25;9.07;;;4.43;;
11230;SDS011;5672;51.060;3.734;2023-07-20T05:26:51;6.10;;;5.07;;
11230;SDS011;5672;51.060;3.734;2023-07-20T05:29:17;6.30;;;5.40;;
11230;SDS011;5672;51.060;3.734;2023-07-20T05:31:43;6.00;;;5.27;;
11230;SDS011;5672;51.060;3.734;2023-07-20T05:34:08;9.77;;;5.17;;
11230;SDS011;5672;51.060;3.734;2023-07-20T05:36:34;5.37;;;4.97;;
11230;SDS011;5672;51.060;3.734;2023-07-20T05:39:01;6.10;;;5.13;;
11230;SDS011;5672;51.060;3.734;2023-07-20T05:41:27;5.57;;;5.03;;
11230;SDS011;5672;51.060;3.734;2023-07-20T05:43:53;8.60;;;4.50;;
11230;SDS011;5672;51.060;3.734;2023-07-20T05:46:19;5.13;;;4.60;;
11230;SDS011;5672;51.060;3.734;2023-07-20T05:48:45;5.10;;;4.70;;
11230;SDS011;5672;51.060;3.734;2023-07-20T05:51:11;5.80;;;4.47;;
11230;SDS011;5672;51.060;3.734;2023-07-20T05:53:37;6.73;;;4.60;;
11230;SDS011;5672;51.060;3.734;2023-07-20T05:56:03;5.57;;;3.77;;
11230;SDS011;5672;51.060;3.734;2023-07-20T05:58:29;4.20;;;3.73;;
11230;SDS011;5672;51.060;3.734;2023-07-20T06:00:56;4.37;;;3.97;;
11230;SDS011;5672;51.060;3.734;2023-07-20T06:03:23;4.13;;;3.80;;
11230;SDS011;5672;51.060;3.734;2023-07-20T06:05:49;3.60;;;3.30;;
11230;SDS011;5672;51.060;3.734;2023-07-20T06:08:14;3.43;;;3.23;;
11230;SDS011;5672;51.060;3.734;2023-07-20T06:10:40;3.53;;;3.33;;
11230;SDS011;5672;51.060;3.734;2023-07-20T06:13:06;3.57;;;3.37;;
11230;SDS011;5672;51.060;3.734;2023-07-20T06:15:32;3.43;;;3.13;;
11230;SDS011;5672;51.060;3.734;2023-07-20T06:18:03;3.43;;;3.23;;
11230;SDS011;5672;51.060;3.734;2023-07-20T06:20:29;3.27;;;3.07;;
11230;SDS011;5672;51.060;3.734;2023-07-20T06:22:55;4.00;;;3.70;;
11230;SDS011;5672;51.060;3.734;2023-07-20T06:25:21;3.30;;;3.10;;
11230;SDS011;5672;51.060;3.734;2023-07-20T06:27:48;2.97;;;2.83;;
11230;SDS011;5672;51.060;3.734;2023-07-20T06:30:15;3.87;;;3.57;;
11230;SDS011;5672;51.060;3.734;2023-07-20T06:32:41;3.83;;;3.50;;
11230;SDS011;5672;51.060;3.734;2023-07-20T06:35:07;4.23;;;3.47;;
11230;SDS011;5672;51.060;3.734;2023-07-20T06:37:34;3.30;;;3.00;;
11230;SDS011;5672;51.060;3.734;2023-07-20T06:40:00;3.30;;;3.07;;
11230;SDS011;5672;51.060;3.734;2023-07-20T06:42:26;3.00;;;1.90;;
11230;SDS011;5672;51.060;3.734;2023-07-20T06:44:52;1.93;;;1.83;;
11230;SDS011;5672;51.060;3.734;2023-07-20T06:47:18;2.47;;;1.80;;
11230;SDS011;5672;51.060;3.734;2023-07-20T06:49:44;1.90;;;1.80;;
11230;SDS011;5672;51.060;3.734;2023-07-20T06:52:09;2.23;;;1.60;;
11230;SDS011;5672;51.060;3.734;2023-07-20T06:54:35;6.10;;;2.00;;
11230;SDS011;5672;51.060;3.734;2023-07-20T06:57:01;2.07;;;1.87;;
11230;SDS011;5672;51.060;3.734;2023-07-20T06:59:27;2.47;;;1.73;;
11230;SDS011;5672;51.060;3.734;2023-07-20T07:01:53;6.53;;;1.80;;
11230;SDS011;5672;51.060;3.734;2023-07-20T07:04:19;1.50;;;1.40;;
11230;SDS011;5672;51.060;3.734;2023-07-20T07:06:45;2.73;;;1.53;;
11230;SDS011;5672;51.060;3.734;2023-07-20T07:09:11;2.27;;;1.67;;
11230;SDS011;5672;51.060;3.734;2023-07-20T07:11:37;1.50;;;1.23;;
11230;SDS011;5672;51.060;3.734;2023-07-20T07:14:03;2.07;;;1.60;;
11230;SDS011;5672;51.060;3.734;2023-07-20T07:16:29;5.20;;;1.60;;
11230;SDS011;5672;51.060;3.734;2023-07-20T07:18:55;2.70;;;2.60;;
11230;SDS011;5672;51.060;3.734;2023-07-20T07:21:21;2.30;;;2.20;;
11230;SDS011;5672;51.060;3.734;2023-07-20T07:23:47;2.60;;;2.30;;
11230;SDS011;5672;51.060;3.734;2023-07-20T07:26:14;3.07;;;2.93;;
11230;SDS011;5672;51.060;3.734;2023-07-20T07:28:40;2.70;;;2.50;;
11230;SDS011;5672;51.060;3.734;2023-07-20T07:31:06;3.30;;;3.00;;
11230;SDS011;5672;51.060;3.734;2023-07-20T07:33:33;3.07;;;2.80;;
11230;SDS011;5672;51.060;3.734;2023-07-20T07:36:00;3.30;;;3.10;;
11230;SDS011;5672;51.060;3.734;2023-07-20T07:38:26;3.10;;;2.97;;
11230;SDS011;5672;51.060;3.734;2023-07-20T07:40:52;2.73;;;2.63;;
11230;SDS011;5672;51.060;3.734;2023-07-20T07:43:18;3.30;;;3.10;;
11230;SDS011;5672;51.060;3.734;2023-07-20T07:45:43;4.20;;;3.90;;
11230;SDS011;5672;51.060;3.734;2023-07-20T07:48:09;3.50;;;3.27;;
11230;SDS011;5672;51.060;3.734;2023-07-20T07:50:37;4.40;;;4.10;;
11230;SDS011;5672;51.060;3.734;2023-07-20T07:53:05;4.43;;;4.00;;
11230;SDS011;5672;51.060;3.734;2023-07-20T07:55:31;3.40;;;3.20;;
11230;SDS011;5672;51.060;3.734;2023-07-20T07:57:57;3.53;;;3.40;;
11230;SDS011;5672;51.060;3.734;2023-07-20T08:00:22;4.07;;;3.77;;
11230;SDS011;5672;51.060;3.734;2023-07-20T08:02:49;4.47;;;4.17;;
11230;SDS011;5672;51.060;3.734;2023-07-20T08:05:16;4.00;;;3.70;;
11230;SDS011;5672;51.060;3.734;2023-07-20T08:07:42;3.90;;;3.70;;
11230;SDS011;5672;51.060;3.734;2023-07-20T08:10:08;4.63;;;4.30;;
11230;SDS011;5672;51.060;3.734;2023-07-20T08:12:34;5.23;;;4.63;;
11230;SDS011;5672;51.060;3.734;2023-07-20T08:15:00;5.33;;;4.27;;
11230;SDS011;5672;51.060;3.734;2023-07-20T08:17:26;4.50;;;4.20;;
11230;SDS011;5672;51.060;3.734;2023-07-20T08:19:52;6.20;;;5.63;;
11230;SDS011;5672;51.060;3.734;2023-07-20T08:22:18;5.97;;;5.47;;
11230;SDS011;5672;51.060;3.734;2023-07-20T08:24:44;5.57;;;4.87;;
11230;SDS011;5672;51.060;3.734;2023-07-20T08:27:10;3.70;;;3.50;;
11230;SDS011;5672;51.060;3.734;2023-07-20T08:29:36;3.83;;;3.27;;
11230;SDS011;5672;51.060;3.734;2023-07-20T08:32:02;2.77;;;2.50;;
11230;SDS011;5672;51.060;3.734;2023-07-20T08:34:29;4.63;;;4.10;;
11230;SDS011;5672;51.060;3.734;2023-07-20T08:36:55;7.73;;;5.60;;
11230;SDS011;5672;51.060;3.734;2023-07-20T08:39:21;9.83;;;6.10;;
11230;SDS011;5672;51.060;3.734;2023-07-20T08:41:48;6.30;;;5.17;;
11230;SDS011;5672;51.060;3.734;2023-07-20T08:44:14;13.47;;;9.07;;
11230;SDS011;5672;51.060;3.734;2023-07-20T08:46:40;3.13;;;2.73;;
11230;SDS011;5672;51.060;3.734;2023-07-20T08:49:07;2.40;;;2.30;;
11230;SDS011;5672;51.060;3.734;2023-07-20T08:51:33;1.90;;;1.80;;
11230;SDS011;5672;51.060;3.734;2023-07-20T08:53:59;1.57;;;1.50;;
11230;SDS011;5672;51.060;3.734;2023-07-20T08:56:25;2.70;;;2.50;;
11230;SDS011;5672;51.060;3.734;2023-07-20T08:58:53;2.77;;;2.57;;
11230;SDS011;5672;51.060;3.734;2023-07-20T09:01:19;2.70;;;2.50;;
11230;SDS011;5672;51.060;3.734;2023-07-20T09:03:45;1.93;;;1.83;;
11230;SDS011;5672;51.060;3.734;2023-07-20T09:06:12;1.80;;;1.70;;
11230;SDS011;5672;51.060;3.734;2023-07-20T09:08:39;1.33;;;1.33;;
11230;SDS011;5672;51.060;3.734;2023-07-20T09:11:05;3.27;;;2.13;;
11230;SDS011;5672;51.060;3.734;2023-07-20T09:13:32;2.00;;;1.90;;
11230;SDS011;5672;51.060;3.734;2023-07-20T09:15:58;5.13;;;3.87;;
11230;SDS011;5672;51.060;3.734;2023-07-20T09:18:25;3.90;;;3.53;;
11230;SDS011;5672;51.060;3.734;2023-07-20T09:20:51;3.87;;;3.47;;
11230;SDS011;5672;51.060;3.734;2023-07-20T09:23:17;4.33;;;3.93;;
11230;SDS011;5672;51.060;3.734;2023-07-20T09:25:43;2.63;;;2.50;;
11230;SDS011;5672;51.060;3.734;2023-07-20T09:28:10;2.37;;;2.23;;
11230;SDS011;5672;51.060;3.734;2023-07-20T09:30:37;1.93;;;1.83;;
11230;SDS011;5672;51.060;3.734;2023-07-20T09:33:03;1.67;;;1.53;;
11230;SDS011;5672;51.060;3.734;2023-07-20T09:35:28;1.70;;;1.60;;
11230;SDS011;5672;51.060;3.734;2023-07-20T09:37:57;1.47;;;1.37;;
11230;SDS011;5672;51.060;3.734;2023-07-20T09:40:24;1.60;;;1.50;;
11230;SDS011;5672;51.060;3.734;2023-07-20T09:42:51;1.30;;;1.20;;
11230;SDS011;5672;51.060;3.734;2023-07-20T09:45:18;1.50;;;1.40;;
11230;SDS011;5672;51.060;3.734;2023-07-20T09:47:44;1.90;;;1.30;;
11230;SDS011;5672;51.060;3.734;2023-07-20T09:50:10;1.23;;;1.23;;
11230;SDS011;5672;51.060;3.734;2023-07-20T09:52:39;1.50;;;1.40;;
11230;SDS011;5672;51.060;3.734;2023-07-20T09:55:08;2.80;;;1.20;;
11230;SDS011;5672;51.060;3.734;2023-07-20T09:57:36;1.40;;;1.30;;
11230;SDS011;5672;51.060;3.734;2023-07-20T10:00:03;1.20;;;1.10;;
11230;SDS011;5672;51.060;3.734;2023-07-20T10:02:33;2.10;;;1.27;;
11230;SDS011;5672;51.060;3.734;2023-07-20T10:05:03;1.47;;;1.33;;
11230;SDS011;5672;51.060;3.734;2023-07-20T10:07:29;1.37;;;0.97;;
11230;SDS011;5672;51.060;3.734;2023-07-20T10:09:56;2.77;;;1.10;;
11230;SDS011;5672;51.060;3.734;2023-07-20T10:12:25;1.30;;;1.10;;
11230;SDS011;5672;51.060;3.734;2023-07-20T10:17:30;1.00;;;1.00;;
11230;SDS011;5672;51.060;3.734;2023-07-20T10:19:56;1.73;;;1.07;;
11230;SDS011;5672;51.060;3.734;2023-07-20T10:22:24;1.10;;;1.10;;
11230;SDS011;5672;51.060;3.734;2023-07-20T10:24:51;1.57;;;1.47;;
11230;SDS011;5672;51.060;3.734;2023-07-20T10:27:19;1.40;;;1.30;;
11230;SDS011;5672;51.060;3.734;2023-07-20T10:29:45;1.40;;;1.30;;
11230;SDS011;5672;51.060;3.734;2023-07-20T10:32:12;1.47;;;1.37;;
11230;SDS011;5672;51.060;3.734;2023-07-20T10:34:38;1.33;;;1.23;;
11230;SDS011;5672;51.060;3.734;2023-07-20T10:37:04;2.13;;;1.30;;
11230;SDS011;5672;51.060;3.734;2023-07-20T10:39:31;1.43;;;1.27;;
11230;SDS011;5672;51.060;3.734;2023-07-20T10:44:27;1.17;;;1.13;;
11230;SDS011;5672;51.060;3.734;2023-07-20T10:46:58;1.43;;;1.30;;
11230;SDS011;5672;51.060;3.734;2023-07-20T10:49:24;1.43;;;1.10;;
11230;SDS011;5672;51.060;3.734;2023-07-20T10:51:56;2.10;;;1.30;;
11230;SDS011;5672;51.060;3.734;2023-07-20T10:56:50;1.20;;;1.20;;
11230;SDS011;5672;51.060;3.734;2023-07-20T10:59:19;1.93;;;1.83;;
11230;SDS011;5672;51.060;3.734;2023-07-20T11:01:46;1.57;;;1.50;;
11230;SDS011;5672;51.060;3.734;2023-07-20T11:04:14;1.53;;;1.40;;
11230;SDS011;5672;51.060;3.734;2023-07-20T11:06:43;1.10;;;1.00;;
11230;SDS011;5672;51.060;3.734;2023-07-20T11:09:13;1.20;;;1.20;;
11230;SDS011;5672;51.060;3.734;2023-07-20T11:11:40;2.27;;;1.00;;
11230;SDS011;5672;51.060;3.734;2023-07-20T11:14:10;1.07;;;1.07;;
11230;SDS011;5672;51.060;3.734;2023-07-20T11:16:37;1.07;;;1.07;;
11230;SDS011;5672;51.060;3.734;2023-07-20T11:19:04;0.93;;;0.93;;
11230;SDS011;5672;51.060;3.734;2023-07-20T11:21:35;1.70;;;1.30;;
11230;SDS011;5672;51.060;3.734;2023-07-20T11:24:05;1.80;;;1.20;;
11230;SDS011;5672;51.060;3.734;2023-07-20T11:26:39;0.90;;;0.90;;
11230;SDS011;5672;51.060;3.734;2023-07-20T11:29:05;1.60;;;1.10;;
11230;SDS011;5672;51.060;3.734;2023-07-20T11:31:34;2.17;;;1.30;;
11230;SDS011;5672;51.060;3.734;2023-07-20T11:34:00;1.03;;;1.03;;
11230;SDS011;5672;51.060;3.734;2023-07-20T11:36:26;1.10;;;1.10;;
11230;SDS011;5672;51.060;3.734;2023-07-20T11:38:52;1.20;;;1.10;;
11230;SDS011;5672;51.060;3.734;2023-07-20T11:41:19;1.20;;;1.10;;
11230;SDS011;5672;51.060;3.734;2023-07-20T11:43:46;2.63;;;1.10;;
11230;SDS011;5672;51.060;3.734;2023-07-20T11:46:13;1.53;;;1.33;;
11230;SDS011;5672;51.060;3.734;2023-07-20T11:48:39;1.13;;;1.03;;
11230;SDS011;5672;51.060;3.734;2023-07-20T11:51:05;1.53;;;1.40;;
11230;SDS011;5672;51.060;3.734;2023-07-20T11:53:31;1.57;;;1.47;;
11230;SDS011;5672;51.060;3.734;2023-07-20T11:56:00;1.63;;;1.63;;
11230;SDS011;5672;51.060;3.734;2023-07-20T11:58:27;2.83;;;2.63;;
11230;SDS011;5672;51.060;3.734;2023-07-20T12:00:53;3.77;;;2.40;;
11230;SDS011;5672;51.060;3.734;2023-07-20T12:03:20;3.20;;;2.90;;
11230;SDS011;5672;51.060;3.734;2023-07-20T12:05:46;2.53;;;2.33;;
11230;SDS011;5672;51.060;3.734;2023-07-20T12:08:12;2.00;;;1.90;;
11230;SDS011;5672;51.060;3.734;2023-07-20T12:10:39;2.17;;;1.97;;
11230;SDS011;5672;51.060;3.734;2023-07-20T12:13:09;2.60;;;2.20;;
11230;SDS011;5672;51.060;3.734;2023-07-20T12:15:36;1.70;;;1.60;;
11230;SDS011;5672;51.060;3.734;2023-07-20T12:18:02;1.50;;;1.40;;
11230;SDS011;5672;51.060;3.734;2023-07-20T12:22:56;1.53;;;1.40;;
11230;SDS011;5672;51.060;3.734;2023-07-20T12:25:22;1.47;;;1.40;;
11230;SDS011;5672;51.060;3.734;2023-07-20T12:27:48;1.80;;;1.60;;
11230;SDS011;5672;51.060;3.734;2023-07-20T12:30:14;3.23;;;2.00;;
11230;SDS011;5672;51.060;3.734;2023-07-20T12:32:40;2.10;;;1.90;;
11230;SDS011;5672;51.060;3.734;2023-07-20T12:35:07;1.80;;;1.67;;
11230;SDS011;5672;51.060;3.734;2023-07-20T12:37:33;2.10;;;2.00;;
11230;SDS011;5672;51.060;3.734;2023-07-20T12:39:58;2.30;;;2.10;;
11230;SDS011;5672;51.060;3.734;2023-07-20T12:42:25;2.10;;;1.57;;
11230;SDS011;5672;51.060;3.734;2023-07-20T12:44:50;3.30;;;1.83;;
11230;SDS011;5672;51.060;3.734;2023-07-20T12:47:17;1.77;;;1.67;;
11230;SDS011;5672;51.060;3.734;2023-07-20T12:49:43;1.70;;;1.60;;
11230;SDS011;5672;51.060;3.734;2023-07-20T12:52:12;1.60;;;1.50;;
11230;SDS011;5672;51.060;3.734;2023-07-20T12:54:38;2.53;;;1.70;;
11230;SDS011;5672;51.060;3.734;2023-07-20T12:57:04;1.73;;;1.60;;
11230;SDS011;5672;51.060;3.734;2023-07-20T12:59:30;1.53;;;1.43;;
11230;SDS011;5672;51.060;3.734;2023-07-20T13:01:56;1.57;;;1.47;;
11230;SDS011;5672;51.060;3.734;2023-07-20T13:04:22;1.27;;;1.17;;
11230;SDS011;5672;51.060;3.734;2023-07-20T13:06:48;1.30;;;1.30;;
11230;SDS011;5672;51.060;3.734;2023-07-20T13:09:14;1.80;;;1.70;;
11230;SDS011;5672;51.060;3.734;2023-07-20T13:11:40;1.53;;;1.37;;
11230;SDS011;5672;51.060;3.734;2023-07-20T13:14:06;1.60;;;1.50;;
11230;SDS011;5672;51.060;3.734;2023-07-20T13:16:33;1.10;;;1.10;;
11230;SDS011;5672;51.060;3.734;2023-07-20T13:19:00;5.57;;;1.50;;
11230;SDS011;5672;51.060;3.734;2023-07-20T13:21:26;3.07;;;1.30;;
11230;SDS011;5672;51.060;3.734;2023-07-20T13:23:52;1.30;;;1.30;;
11230;SDS011;5672;51.060;3.734;2023-07-20T13:26:18;1.30;;;1.30;;
11230;SDS011;5672;51.060;3.734;2023-07-20T13:28:43;1.10;;;1.10;;
11230;SDS011;5672;51.060;3.734;2023-07-20T13:31:09;1.60;;;1.40;;
11230;SDS011;5672;51.060;3.734;2023-07-20T13:33:36;1.30;;;1.30;;
11230;SDS011;5672;51.060;3.734;2023-07-20T13:36:02;1.57;;;1.47;;
11230;SDS011;5672;51.060;3.734;2023-07-20T13:38:30;1.50;;;1.40;;
11230;SDS011;5672;51.060;3.734;2023-07-20T13:40:56;1.70;;;1.20;;
11230;SDS011;5672;51.060;3.734;2023-07-20T13:43:22;1.10;;;0.87;;
11230;SDS011;5672;51.060;3.734;2023-07-20T13:45:48;1.40;;;1.30;;
11230;SDS011;5672;51.060;3.734;2023-07-20T13:48:14;2.80;;;1.07;;
11230;SDS011;5672;51.060;3.734;2023-07-20T13:50:42;2.40;;;1.40;;
11230;SDS011;5672;51.060;3.734;2023-07-20T13:53:08;1.13;;;1.03;;
11230;SDS011;5672;51.060;3.734;2023-07-20T13:55:33;1.00;;;1.00;;
11230;SDS011;5672;51.060;3.734;2023-07-20T13:58:02;2.33;;;1.30;;
11230;SDS011;5672;51.060;3.734;2023-07-20T14:00:27;1.50;;;1.40;;
11230;SDS011;5672;51.060;3.734;2023-07-20T14:02:57;3.90;;;2.30;;
11230;SDS011;5672;51.060;3.734;2023-07-20T14:05:23;3.40;;;2.40;;
11230;SDS011;5672;51.060;3.734;2023-07-20T14:07:49;2.33;;;2.20;;
11230;SDS011;5672;51.060;3.734;2023-07-20T14:10:15;2.80;;;2.60;;
11230;SDS011;5672;51.060;3.734;2023-07-20T14:12:41;2.17;;;2.00;;
11230;SDS011;5672;51.060;3.734;2023-07-20T14:15:07;2.63;;;2.43;;
11230;SDS011;5672;51.060;3.734;2023-07-20T14:17:33;2.80;;;2.60;;
11230;SDS011;5672;51.060;3.734;2023-07-20T14:20:00;4.73;;;3.50;;
11230;SDS011;5672;51.060;3.734;2023-07-20T14:22:26;3.47;;;3.17;;
11230;SDS011;5672;51.060;3.734;2023-07-20T14:24:52;3.20;;;3.00;;
11230;SDS011;5672;51.060;3.734;2023-07-20T14:27:18;5.23;;;4.10;;
11230;SDS011;5672;51.060;3.734;2023-07-20T14:29:44;3.60;;;3.40;;
11230;SDS011;5672;51.060;3.734;2023-07-20T14:32:10;4.13;;;3.90;;
11230;SDS011;5672;51.060;3.734;2023-07-20T14:34:36;4.57;;;4.23;;
11230;SDS011;5672;51.060;3.734;2023-07-20T14:37:02;5.93;;;4.30;;
11230;SDS011;5672;51.060;3.734;2023-07-20T14:39:29;5.30;;;4.90;;
11230;SDS011;5672;51.060;3.734;2023-07-20T14:41:55;9.63;;;6.00;;
11230;SDS011;5672;51.060;3.734;2023-07-20T14:44:21;5.57;;;5.17;;
11230;SDS011;5672;51.060;3.734;2023-07-20T14:46:47;5.37;;;4.93;;
11230;SDS011;5672;51.060;3.734;2023-07-20T14:49:13;6.13;;;5.60;;
11230;SDS011;5672;51.060;3.734;2023-07-20T14:51:39;5.30;;;4.77;;
11230;SDS011;5672;51.060;3.734;2023-07-20T14:54:08;6.10;;;5.70;;
11230;SDS011;5672;51.060;3.734;2023-07-20T14:56:34;6.17;;;5.70;;
11230;SDS011;5672;51.060;3.734;2023-07-20T14:59:01;5.87;;;5.37;;
11230;SDS011;5672;51.060;3.734;2023-07-20T15:01:27;5.87;;;5.47;;
11230;SDS011;5672;51.060;3.734;2023-07-20T15:03:59;5.63;;;5.23;;
11230;SDS011;5672;51.060;3.734;2023-07-20T15:06:25;6.80;;;6.40;;
11230;SDS011;5672;51.060;3.734;2023-07-20T15:08:51;8.00;;;7.30;;
11230;SDS011;5672;51.060;3.734;2023-07-20T15:11:17;7.00;;;6.40;;
11230;SDS011;5672;51.060;3.734;2023-07-20T15:13:43;110.10;;;32.73;;
11230;SDS011;5672;51.060;3.734;2023-07-20T15:16:09;27.87;;;15.47;;